Time;durP1;ratioP1;P1;durP2;ratioP2;P2;SDS_P1;SDS_P2;PMS_P1;PMS_P2;Temp;Humidity;BMP_temperature;BMP_pressure;BME280_temperature;BME280_humidity;BME280_pressure;Samples;Min_cycle;Max_cycle;Signal;HPM_P1;HPM_P2
2021/11/25 00:01:36;;;;;;;17.27;5.10;;;;;;;;;;5016886;28;20452;-69
2021/11/25 00:04:01;;;;;;;37.80;6.07;;;;;;;;;;5016718;28;20061;-69
2021/11/25 00:06:27;;;;;;;25.30;5.15;;;;;;;;;;5013217;28;20091;-69
2021/11/25 00:08:52;;;;;;;29.00;4.97;;;;;;;;;;5004972;28;20042;-69
2021/11/25 00:11:18;;;;;;;30.65;5.43;;;;;;;;;;5014963;28;20041;-70
2021/11/25 00:13:43;;;;;;;15.55;4.65;;;;;;;;;;5020187;28;20033;-69
2021/11/25 00:16:09;;;;;;;25.25;5.25;;;;;;;;;;5015760;28;20033;-68
2021/11/25 00:18:35;;;;;;;22.67;5.20;;;;;;;;;;5012524;28;20041;-68
2021/11/25 00:21:01;;;;;;;16.25;3.92;;;;;;;;;;5022394;28;20063;-71
2021/11/25 00:23:27;;;;;;;23.00;4.95;;;;;;;;;;5021551;28;20057;-70
2021/11/25 00:25:52;;;;;;;18.67;3.40;;;;;;;;;;5017231;28;20033;-71
2021/11/25 00:28:18;;;;;;;26.63;4.38;;;;;;;;;;5009489;28;20095;-69
2021/11/25 00:30:43;;;;;;;27.08;3.35;;;;;;;;;;5016669;28;20052;-71
2021/11/25 00:33:09;;;;;;;14.98;3.50;;;;;;;;;;5019213;28;20030;-70
2021/11/25 00:35:35;;;;;;;17.70;2.90;;;;;;;;;;5012377;28;20033;-70
2021/11/25 00:38:01;;;;;;;17.50;3.97;;;;;;;;;;5008349;28;20037;-68
2021/11/25 00:40:27;;;;;;;22.27;3.65;;;;;;;;;;5021113;28;20037;-70
2021/11/25 00:42:52;;;;;;;23.20;3.97;;;;;;;;;;5024823;28;20055;-69
2021/11/25 00:45:18;;;;;;;22.85;3.72;;;;;;;;;;5021524;28;20029;-69
2021/11/25 00:47:45;;;;;;;15.82;3.63;;;;;;;;;;5004032;28;20032;-68
2021/11/25 00:50:15;;;;;;;14.20;3.58;;;;;;;;;;5017627;28;20068;-68
2021/11/25 00:52:42;;;;;;;24.50;3.47;;;;;;;;;;5019619;28;20040;-69
2021/11/25 00:55:08;;;;;;;31.42;4.03;;;;;;;;;;5023236;28;20037;-68
2021/11/25 00:57:33;;;;;;;22.63;4.15;;;;;;;;;;5000281;28;20052;-69
2021/11/25 00:59:59;;;;;;;18.63;3.75;;;;;;;;;;5017461;28;20046;-69
2021/11/25 01:02:25;;;;;;;21.77;3.67;;;;;;;;;;5023536;28;20038;-68
2021/11/25 01:04:50;;;;;;;18.88;3.75;;;;;;;;;;5021732;28;20456;-69
2021/11/25 01:07:16;;;;;;;12.88;2.17;;;;;;;;;;5002433;28;20030;-69
2021/11/25 01:09:42;;;;;;;27.38;4.18;;;;;;;;;;5018865;28;20041;-69
2021/11/25 01:12:09;;;;;;;15.70;3.20;;;;;;;;;;5016283;28;20400;-69
2021/11/25 01:14:35;;;;;;;19.15;4.15;;;;;;;;;;5019267;28;20029;-70
2021/11/25 01:17:02;;;;;;;32.83;5.00;;;;;;;;;;5009059;28;20029;-69
2021/11/25 01:19:27;;;;;;;19.33;4.72;;;;;;;;;;5013471;28;20033;-69
2021/11/25 01:21:53;;;;;;;19.77;4.85;;;;;;;;;;5018503;28;20554;-69
2021/11/25 01:24:19;;;;;;;18.27;4.65;;;;;;;;;;5015121;28;20545;-70
2021/11/25 01:26:44;;;;;;;24.25;4.82;;;;;;;;;;5016079;28;20021;-70
2021/11/25 01:29:11;;;;;;;24.10;5.25;;;;;;;;;;5018083;28;20029;-68
2021/11/25 01:31:38;;;;;;;26.60;7.63;;;;;;;;;;5019973;28;20099;-70
2021/11/25 01:34:04;;;;;;;22.52;5.32;;;;;;;;;;5019585;28;20528;-70
2021/11/25 01:36:29;;;;;;;26.92;5.82;;;;;;;;;;5013068;28;20194;-71
2021/11/25 01:38:55;;;;;;;23.88;5.55;;;;;;;;;;5005160;28;20033;-70
2021/11/25 01:41:20;;;;;;;38.15;5.22;;;;;;;;;;5018285;28;20130;-70
2021/11/25 01:43:46;;;;;;;36.55;5.65;;;;;;;;;;5018563;28;20101;-68
2021/11/25 01:46:14;;;;;;;27.00;6.47;;;;;;;;;;5014178;28;20065;-68
2021/11/25 01:48:41;;;;;;;29.23;4.53;;;;;;;;;;5012237;28;20103;-71
2021/11/25 01:51:07;;;;;;;25.20;4.13;;;;;;;;;;5017715;28;20076;-70
2021/11/25 01:53:33;;;;;;;19.33;3.25;;;;;;;;;;5020170;28;20835;-70
2021/11/25 01:55:58;;;;;;;27.77;3.70;;;;;;;;;;5010716;28;20047;-68
2021/11/25 01:58:24;;;;;;;24.20;4.68;;;;;;;;;;5006165;28;20041;-68
2021/11/25 02:00:56;;;;;;;12.90;3.00;;;;;;;;;;5015820;28;20113;-69
2021/11/25 02:03:23;;;;;;;20.95;3.17;;;;;;;;;;5020004;28;20129;-70
2021/11/25 02:05:49;;;;;;;22.10;3.33;;;;;;;;;;5019945;28;20139;-69
2021/11/25 02:08:15;;;;;;;22.95;3.25;;;;;;;;;;5002693;28;20270;-69
2021/11/25 02:10:44;;;;;;;22.98;3.22;;;;;;;;;;5016950;28;20102;-68
2021/11/25 02:13:10;;;;;;;24.42;3.60;;;;;;;;;;5019972;28;20083;-69
2021/11/25 02:15:37;;;;;;;17.50;2.80;;;;;;;;;;5016115;28;20029;-70
2021/11/25 02:18:09;;;;;;;17.67;2.67;;;;;;;;;;5000290;28;20137;-69
2021/11/25 02:20:36;;;;;;;;;;;;;;;;;;5021209;28;20030;-70
2021/11/25 02:23:01;;;;;;;22.33;3.83;;;;;;;;;;5015996;28;19924;-70
2021/11/25 02:25:27;;;;;;;20.17;3.00;;;;;;;;;;5014396;28;20037;-69
2021/11/25 02:27:53;;;;;;;22.23;3.40;;;;;;;;;;5000324;28;20051;-68
2021/11/25 02:30:18;;;;;;;22.17;3.00;;;;;;;;;;5019117;28;20037;-69
2021/11/25 02:32:45;;;;;;;21.10;3.45;;;;;;;;;;5014781;28;20208;-69
2021/11/25 02:35:18;;;;;;;16.75;3.08;;;;;;;;;;5013717;28;20036;-69
2021/11/25 02:37:43;;;;;;;21.77;3.63;;;;;;;;;;5002296;28;20044;-70
2021/11/25 02:40:33;;;;;;;23.25;3.08;;;;;;;;;;5016153;28;20037;-71
2021/11/25 02:43:02;;;;;;;27.98;4.03;;;;;;;;;;5014405;28;20034;-70
2021/11/25 02:45:29;;;;;;;39.03;3.38;;;;;;;;;;5016908;28;20079;-71
2021/11/25 02:47:56;;;;;;;19.85;3.15;;;;;;;;;;5002108;28;20040;-69
2021/11/25 02:50:24;;;;;;;23.73;1.92;;;;;;;;;;5013576;28;20115;-71
2021/11/25 02:52:50;;;;;;;19.98;2.42;;;;;;;;;;5020149;28;20025;-70
2021/11/25 02:55:17;;;;;;;18.90;3.13;;;;;;;;;;5015686;28;20034;-71
2021/11/25 02:57:43;;;;;;;18.88;2.85;;;;;;;;;;5005851;28;20017;-69
2021/11/25 03:00:20;;;;;;;36.55;3.63;;;;;;;;;;5022544;28;20041;-69
2021/11/25 03:02:46;;;;;;;7.63;1.30;;;;;;;;;;5015965;28;20026;-70
2021/11/25 03:05:14;;;;;;;25.00;2.55;;;;;;;;;;5039121;28;20038;-71
2021/11/25 03:07:39;;;;;;;12.07;2.05;;;;;;;;;;5003610;28;20464;-69
2021/11/25 03:10:06;;;;;;;30.45;2.10;;;;;;;;;;5019720;28;20033;-71
2021/11/25 03:12:32;;;;;;;27.88;2.58;;;;;;;;;;5012390;28;20295;-72
2021/11/25 03:14:57;;;;;;;29.80;3.55;;;;;;;;;;5016432;28;20695;-69
2021/11/25 03:17:23;;;;;;;20.27;1.42;;;;;;;;;;5006405;28;20094;-72
2021/11/25 03:19:48;;;;;;;20.50;2.13;;;;;;;;;;5018795;28;20034;-69
2021/11/25 03:22:14;;;;;;;23.65;2.33;;;;;;;;;;5017665;28;20037;-68
2021/11/25 03:24:39;;;;;;;27.65;2.45;;;;;;;;;;5015800;28;20044;-70
2021/11/25 03:27:05;;;;;;;24.02;2.22;;;;;;;;;;5005494;28;20096;-69
2021/11/25 03:29:31;;;;;;;27.30;1.80;;;;;;;;;;5015677;28;20025;-69
2021/11/25 03:31:56;;;;;;;24.13;2.33;;;;;;;;;;5019825;28;20040;-69
2021/11/25 03:34:22;;;;;;;28.65;2.00;;;;;;;;;;5020304;28;20038;-69
2021/11/25 03:36:48;;;;;;;24.60;2.05;;;;;;;;;;5009848;28;20038;-69
2021/11/25 03:39:13;;;;;;;21.00;2.40;;;;;;;;;;5009846;28;20041;-69
2021/11/25 03:41:39;;;;;;;23.90;2.17;;;;;;;;;;5024436;28;20037;-69
2021/11/25 03:44:04;;;;;;;17.52;1.88;;;;;;;;;;5025942;28;20454;-70
2021/11/25 03:46:33;;;;;;;24.00;2.08;;;;;;;;;;5010610;28;20050;-70
2021/11/25 03:48:59;;;;;;;17.13;2.17;;;;;;;;;;5017829;28;20060;-70
2021/11/25 03:51:24;;;;;;;20.67;2.38;;;;;;;;;;5021174;28;20030;-69
2021/11/25 03:53:50;;;;;;;24.60;1.90;;;;;;;;;;5023319;28;20048;-69
2021/11/25 03:56:16;;;;;;;32.75;3.47;;;;;;;;;;5013569;28;20531;-69
2021/11/25 03:58:43;;;;;;;26.75;1.67;;;;;;;;;;5012495;28;20033;-68
2021/11/25 04:01:09;;;;;;;27.67;2.00;;;;;;;;;;5020068;28;20571;-69
2021/11/25 04:03:36;;;;;;;23.42;1.52;;;;;;;;;;5016775;28;20092;-69
2021/11/25 04:06:02;;;;;;;19.63;2.30;;;;;;;;;;5017883;28;20095;-69
2021/11/25 04:08:28;;;;;;;30.08;1.88;;;;;;;;;;5016805;28;20025;-69
2021/11/25 04:10:54;;;;;;;29.55;1.80;;;;;;;;;;5024287;28;20029;-69
2021/11/25 04:13:19;;;;;;;18.70;1.10;;;;;;;;;;5018907;28;20045;-69
2021/11/25 04:15:45;;;;;;;30.33;2.33;;;;;;;;;;5022690;28;20082;-70
2021/11/25 04:18:10;;;;;;;25.25;2.17;;;;;;;;;;5004703;28;20106;-70
2021/11/25 04:20:37;;;;;;;20.10;1.77;;;;;;;;;;5021794;28;20637;-70
2021/11/25 04:23:04;;;;;;;21.73;2.47;;;;;;;;;;5018870;28;20025;-70
2021/11/25 04:25:29;;;;;;;31.55;2.33;;;;;;;;;;5021590;28;20037;-68
2021/11/25 04:27:55;;;;;;;13.88;1.73;;;;;;;;;;5004223;28;20083;-68
2021/11/25 04:35:32;;;;;;;24.15;1.73;;;;;;;;;;5023659;28;20040;-69
2021/11/25 04:38:06;;;;;;;33.80;3.45;;;;;;;;;;5004521;28;20752;-70
2021/11/25 04:40:48;;;;;;;14.85;1.92;;;;;;;;;;5022804;28;20038;-70
2021/11/25 04:43:15;;;;;;;18.90;1.98;;;;;;;;;;5017800;28;20087;-69
2021/11/25 04:45:43;;;;;;;20.45;2.70;;;;;;;;;;5022179;28;20029;-69
2021/11/25 04:48:09;;;;;;;24.88;2.42;;;;;;;;;;5003529;28;20044;-69
2021/11/25 04:50:36;;;;;;;37.80;3.58;;;;;;;;;;5014356;28;20550;-68
2021/11/25 04:53:02;;;;;;;20.27;2.42;;;;;;;;;;5026518;28;20511;-68
2021/11/25 04:55:27;;;;;;;26.90;1.85;;;;;;;;;;5020736;28;20096;-70
2021/11/25 04:57:53;;;;;;;25.63;2.55;;;;;;;;;;5005771;28;20034;-70
2021/11/25 05:00:19;;;;;;;23.95;2.42;;;;;;;;;;5020202;28;20045;-70
2021/11/25 05:02:45;;;;;;;19.10;2.42;;;;;;;;;;5026461;28;20033;-70
2021/11/25 05:05:11;;;;;;;21.50;1.73;;;;;;;;;;5022056;28;20488;-71
2021/11/25 05:07:36;;;;;;;30.83;1.98;;;;;;;;;;5005917;28;20060;-70
2021/11/25 05:10:04;;;;;;;30.23;1.88;;;;;;;;;;5018075;28;20029;-70
2021/11/25 05:12:30;;;;;;;26.05;1.73;;;;;;;;;;5016735;28;20037;-70
2021/11/25 05:14:56;;;;;;;22.25;2.25;;;;;;;;;;5020358;28;20048;-72
2021/11/25 05:17:21;;;;;;;22.40;1.40;;;;;;;;;;5003988;28;20084;-71
2021/11/25 05:19:47;;;;;;;23.83;2.55;;;;;;;;;;5019414;28;20033;-72
2021/11/25 05:22:12;;;;;;;17.52;1.63;;;;;;;;;;5023756;28;20030;-70
2021/11/25 05:24:38;;;;;;;19.83;1.80;;;;;;;;;;5019780;28;20136;-72
2021/11/25 05:27:04;;;;;;;20.38;2.25;;;;;;;;;;5006843;28;20117;-70
2021/11/25 05:29:29;;;;;;;31.50;3.03;;;;;;;;;;5013771;28;20509;-71
2021/11/25 05:31:55;;;;;;;21.17;2.40;;;;;;;;;;5021607;28;20034;-70
2021/11/25 05:34:21;;;;;;;35.63;2.83;;;;;;;;;;5019795;28;20505;-69
2021/11/25 05:36:46;;;;;;;21.77;1.77;;;;;;;;;;5008734;28;20044;-68
2021/11/25 05:39:13;;;;;;;17.60;1.52;;;;;;;;;;5011315;28;20544;-69
2021/11/25 05:41:39;;;;;;;36.75;2.67;;;;;;;;;;5016532;28;20030;-69
2021/11/25 05:44:06;;;;;;;22.13;2.38;;;;;;;;;;5016252;28;20036;-69
2021/11/25 05:46:32;;;;;;;28.70;2.38;;;;;;;;;;5012304;28;20029;-67
2021/11/25 05:48:58;;;;;;;21.05;1.40;;;;;;;;;;5012095;28;20111;-69
2021/11/25 05:51:23;;;;;;;14.57;2.33;;;;;;;;;;5019864;28;20057;-70
2021/11/25 05:53:49;;;;;;;29.92;2.75;;;;;;;;;;5016355;28;20114;-69
2021/11/25 05:56:15;;;;;;;18.23;1.55;;;;;;;;;;5014005;28;20032;-69
2021/11/25 05:58:41;;;;;;;30.60;2.40;;;;;;;;;;5009146;28;20029;-70
2021/11/25 06:01:06;;;;;;;18.75;1.48;;;;;;;;;;5019845;28;20030;-70
2021/11/25 06:03:32;;;;;;;20.77;1.50;;;;;;;;;;5015227;28;20566;-69
2021/11/25 06:05:58;;;;;;;24.73;1.67;;;;;;;;;;5010778;28;20104;-69
2021/11/25 06:08:24;;;;;;;20.17;1.73;;;;;;;;;;5005742;28;20053;-70
2021/11/25 06:10:49;;;;;;;32.20;2.28;;;;;;;;;;5018392;28;20033;-69
2021/11/25 06:13:15;;;;;;;32.20;3.80;;;;;;;;;;5015786;28;20121;-69
2021/11/25 06:15:41;;;;;;;32.67;2.38;;;;;;;;;;5019180;28;20088;-67
2021/11/25 06:18:06;;;;;;;26.58;2.72;;;;;;;;;;5005215;28;20038;-69
2021/11/25 06:20:32;;;;;;;21.38;1.90;;;;;;;;;;5015136;28;20041;-70
2021/11/25 06:22:57;;;;;;;21.23;2.13;;;;;;;;;;5021342;28;20032;-70
2021/11/25 06:25:25;;;;;;;18.92;1.38;;;;;;;;;;5017666;28;20439;-70
2021/11/25 06:27:50;;;;;;;19.35;1.63;;;;;;;;;;5000163;28;20477;-69
2021/11/25 06:30:16;;;;;;;25.52;1.48;;;;;;;;;;5013168;28;20044;-70
2021/11/25 06:32:45;;;;;;;28.08;2.05;;;;;;;;;;5016536;28;20034;-69
2021/11/25 06:35:12;;;;;;;28.20;3.55;;;;;;;;;;5016560;28;20492;-70
2021/11/25 06:37:45;;;;;;;28.42;2.25;;;;;;;;;;5005898;28;20131;-69
2021/11/25 06:40:12;;;;;;;20.23;2.33;;;;;;;;;;5021997;28;20029;-70
2021/11/25 06:42:38;;;;;;;22.60;1.67;;;;;;;;;;5019516;28;20057;-70
2021/11/25 06:45:05;;;;;;;27.83;2.15;;;;;;;;;;5015992;28;20025;-70
2021/11/25 06:47:31;;;;;;;17.13;1.60;;;;;;;;;;5003502;28;20033;-69
2021/11/25 06:49:56;;;;;;;15.98;1.42;;;;;;;;;;5015914;28;20065;-69
2021/11/25 06:52:22;;;;;;;30.58;1.85;;;;;;;;;;5015587;28;20111;-70
2021/11/25 06:54:48;;;;;;;23.95;2.13;;;;;;;;;;5018193;28;20045;-70
2021/11/25 06:57:13;;;;;;;16.92;1.88;;;;;;;;;;4999614;28;20034;-69
2021/11/25 06:59:39;;;;;;;19.90;1.98;;;;;;;;;;5016257;28;20022;-70
2021/11/25 07:02:06;;;;;;;25.33;1.42;;;;;;;;;;5018940;28;20040;-70
2021/11/25 07:04:31;;;;;;;14.18;1.48;;;;;;;;;;5015825;28;20088;-69
2021/11/25 07:06:57;;;;;;;30.25;2.40;;;;;;;;;;5011455;28;20036;-69
2021/11/25 07:09:22;;;;;;;21.90;1.25;;;;;;;;;;5020288;28;20120;-69
2021/11/25 07:11:48;;;;;;;21.02;2.35;;;;;;;;;;5021229;28;20037;-68
2021/11/25 07:14:14;;;;;;;27.25;2.28;;;;;;;;;;5018584;28;20534;-68
2021/11/25 07:16:40;;;;;;;17.60;1.40;;;;;;;;;;5008411;28;20021;-69
2021/11/25 07:19:06;;;;;;;22.17;1.85;;;;;;;;;;5017505;28;20060;-70
2021/11/25 07:21:32;;;;;;;29.48;3.42;;;;;;;;;;5021539;28;20534;-70
2021/11/25 07:23:58;;;;;;;18.98;1.33;;;;;;;;;;5021483;28;20451;-70
2021/11/25 07:26:23;;;;;;;25.70;2.08;;;;;;;;;;5011850;28;20033;-70
2021/11/25 07:28:49;;;;;;;28.20;1.90;;;;;;;;;;5009290;28;20528;-68
2021/11/25 07:31:14;;;;;;;27.35;2.25;;;;;;;;;;5022411;28;20037;-70
2021/11/25 07:33:40;;;;;;;28.60;2.40;;;;;;;;;;5016345;28;20417;-71
2021/11/25 07:36:06;;;;;;;32.00;1.75;;;;;;;;;;5010614;28;20037;-69
2021/11/25 07:38:32;;;;;;;30.58;3.20;;;;;;;;;;5014257;28;20122;-68
2021/11/25 07:40:57;;;;;;;13.63;2.03;;;;;;;;;;5023341;28;20038;-69
2021/11/25 07:43:23;;;;;;;28.45;2.28;;;;;;;;;;5014471;28;20025;-69
2021/11/25 07:45:49;;;;;;;25.05;2.08;;;;;;;;;;5015858;28;20036;-69
2021/11/25 07:48:14;;;;;;;14.35;2.10;;;;;;;;;;5011860;28;20033;-69
2021/11/25 07:50:41;;;;;;;18.40;2.38;;;;;;;;;;5017863;28;20374;-70
2021/11/25 07:53:07;;;;;;;32.10;1.92;;;;;;;;;;5017533;28;20029;-69
2021/11/25 07:55:32;;;;;;;15.20;1.25;;;;;;;;;;5014995;28;20030;-69
2021/11/25 07:57:58;;;;;;;41.13;2.45;;;;;;;;;;5002611;28;20568;-69
2021/11/25 08:00:27;;;;;;;21.58;2.33;;;;;;;;;;5018078;28;20413;-69
2021/11/25 08:02:53;;;;;;;26.33;2.00;;;;;;;;;;5022454;28;20033;-68
2021/11/25 08:05:19;;;;;;;30.70;2.70;;;;;;;;;;5021992;28;20034;-70
2021/11/25 08:07:45;;;;;;;32.25;2.45;;;;;;;;;;5005296;28;20061;-69
2021/11/25 08:10:13;;;;;;;49.63;2.38;;;;;;;;;;5016317;28;20026;-69
2021/11/25 08:12:40;;;;;;;23.17;2.88;;;;;;;;;;5016292;28;20519;-73
2021/11/25 08:15:06;;;;;;;16.33;1.52;;;;;;;;;;5024026;28;20033;-64
2021/11/25 08:17:32;;;;;;;25.55;3.05;;;;;;;;;;5011628;28;20037;-61
2021/11/25 08:19:57;;;;;;;33.15;2.53;;;;;;;;;;5019354;28;20095;-61
2021/11/25 08:22:23;;;;;;;31.65;2.67;;;;;;;;;;5012415;28;20216;-62
2021/11/25 08:24:49;;;;;;;19.75;2.03;;;;;;;;;;5021957;28;20033;-62
2021/11/25 08:27:14;;;;;;;20.40;3.38;;;;;;;;;;5008567;28;20032;-62
2021/11/25 08:29:44;;;;;;;27.00;2.30;;;;;;;;;;5024420;28;20473;-62
2021/11/25 08:32:10;;;;;;;18.33;1.85;;;;;;;;;;5018547;28;20472;-62
2021/11/25 08:34:36;;;;;;;13.60;2.30;;;;;;;;;;5020329;28;20112;-66
2021/11/25 08:37:01;;;;;;;11.05;1.17;;;;;;;;;;5016408;28;20144;-65
2021/11/25 08:39:27;;;;;;;24.27;2.45;;;;;;;;;;5020109;28;20112;-66
2021/11/25 08:41:53;;;;;;;29.55;2.80;;;;;;;;;;5025936;28;20021;-65
2021/11/25 08:44:19;;;;;;;21.27;2.33;;;;;;;;;;5022008;28;20492;-66
2021/11/25 08:46:45;;;;;;;29.23;2.35;;;;;;;;;;5008719;28;20114;-65
2021/11/25 08:49:11;;;;;;;28.88;2.83;;;;;;;;;;5014668;28;20124;-66
2021/11/25 08:51:36;;;;;;;35.00;2.63;;;;;;;;;;5021096;28;20120;-65
2021/11/25 08:54:02;;;;;;;20.90;2.88;;;;;;;;;;5016898;28;20519;-66
2021/11/25 08:56:28;;;;;;;30.58;2.13;;;;;;;;;;5013702;28;20029;-66
2021/11/25 08:58:55;;;;;;;38.55;3.08;;;;;;;;;;5015714;28;20029;-63
2021/11/25 09:01:20;;;;;;;26.33;3.08;;;;;;;;;;5025138;28;20095;-63
2021/11/25 09:03:46;;;;;;;33.67;2.35;;;;;;;;;;5017169;28;20063;-66
2021/11/25 09:06:11;;;;;;;32.10;2.90;;;;;;;;;;5016231;28;20115;-66
2021/11/25 09:08:37;;;;;;;23.70;3.15;;;;;;;;;;5010274;28;20037;-67
2021/11/25 09:11:03;;;;;;;17.38;2.38;;;;;;;;;;5018966;28;20036;-66
2021/11/25 09:13:28;;;;;;;18.77;3.05;;;;;;;;;;5022473;28;20045;-66
2021/11/25 09:15:54;;;;;;;34.17;2.65;;;;;;;;;;5012834;28;20109;-64
2021/11/25 09:18:20;;;;;;;23.15;1.70;;;;;;;;;;5009413;28;20029;-65
2021/11/25 09:20:46;;;;;;;24.70;2.40;;;;;;;;;;5023406;28;20484;-66
2021/11/25 09:23:18;;;;;;;18.60;1.60;;;;;;;;;;5021402;28;20488;-66
2021/11/25 09:25:44;;;;;;;33.60;3.43;;;;;;;;;;5019436;28;20028;-66
2021/11/25 09:28:21;;;;;;;17.40;1.88;;;;;;;;;;5006446;28;20034;-65
2021/11/25 09:30:48;;;;;;;18.67;2.33;;;;;;;;;;5015585;28;20416;-66
2021/11/25 09:33:14;;;;;;;20.98;2.38;;;;;;;;;;5020380;28;20037;-65
2021/11/25 09:35:40;;;;;;;29.33;2.08;;;;;;;;;;5023999;28;20466;-66
2021/11/25 09:38:08;;;;;;;22.75;2.60;;;;;;;;;;5008625;28;20026;-65
2021/11/25 09:40:34;;;;;;;23.13;3.53;;;;;;;;;;5022422;28;20033;-67
2021/11/25 09:43:03;;;;;;;19.95;2.10;;;;;;;;;;5018115;28;20025;-66
2021/11/25 09:45:29;;;;;;;17.58;2.45;;;;;;;;;;5017065;28;20479;-65
2021/11/25 09:47:58;;;;;;;11.43;1.90;;;;;;;;;;5006279;28;20033;-66
2021/11/25 09:50:27;;;;;;;19.02;2.15;;;;;;;;;;5020992;28;20050;-66
2021/11/25 09:52:56;;;;;;;20.90;2.38;;;;;;;;;;5025257;28;20025;-66
2021/11/25 09:55:22;;;;;;;20.30;1.73;;;;;;;;;;5019162;28;20398;-66
2021/11/25 09:57:50;;;;;;;40.80;4.65;;;;;;;;;;5010508;28;20503;-66
2021/11/25 10:00:16;;;;;;;18.38;3.08;;;;;;;;;;5019536;28;20037;-66
2021/11/25 10:02:42;;;;;;;20.35;2.53;;;;;;;;;;5018156;28;20102;-66
2021/11/25 10:05:07;;;;;;;21.67;2.28;;;;;;;;;;5021616;28;20021;-66
2021/11/25 10:07:37;;;;;;;27.13;2.25;;;;;;;;;;5002835;28;20468;-66
2021/11/25 10:10:25;;;;;;;30.13;3.80;;;;;;;;;;5015448;28;20242;-66
2021/11/25 10:12:55;;;;;;;34.45;3.55;;;;;;;;;;5012116;28;20381;-66
2021/11/25 10:15:33;;;;;;;24.77;2.83;;;;;;;;;;5016101;28;20596;-66
2021/11/25 10:18:10;;;;;;;21.83;2.45;;;;;;;;;;5003539;28;20038;-65
2021/11/25 10:20:38;;;;;;;25.10;2.65;;;;;;;;;;5017263;28;20053;-67
2021/11/25 10:23:04;;;;;;;30.55;2.45;;;;;;;;;;5012500;28;20056;-65
2021/11/25 10:25:58;;;;;;;24.73;3.22;;;;;;;;;;5013164;28;20030;-66
2021/11/25 10:28:35;;;;;;;33.88;3.20;;;;;;;;;;5005166;28;20025;-65
2021/11/25 10:31:06;;;;;;;19.15;2.70;;;;;;;;;;5012281;28;20551;-65
2021/11/25 10:33:46;;;;;;;35.15;4.38;;;;;;;;;;5018758;28;20420;-65
2021/11/25 10:38:57;;;;;;;33.63;3.75;;;;;;;;;;5005404;28;20028;-65
2021/11/25 10:41:25;;;;;;;23.00;2.38;;;;;;;;;;5016222;28;20037;-64
2021/11/25 10:44:25;;;;;;;23.25;2.58;;;;;;;;;;5017331;28;20022;-65
2021/11/25 10:46:52;;;;;;;20.25;2.22;;;;;;;;;;5000019;28;20034;-66
2021/11/25 10:49:38;;;;;;;29.85;2.65;;;;;;;;;;5011615;28;20049;-66
2021/11/25 10:52:26;;;;;;;18.75;2.15;;;;;;;;;;5015312;28;20045;-66
2021/11/25 10:54:55;;;;;;;17.20;2.63;;;;;;;;;;5011013;28;20057;-66
2021/11/25 10:57:23;;;;;;;13.70;1.95;;;;;;;;;;5001137;28;20390;-64
2021/11/25 10:59:52;;;;;;;35.97;3.60;;;;;;;;;;5015859;28;20104;-65
2021/11/25 11:02:17;;;;;;;24.48;2.30;;;;;;;;;;5014511;28;20442;-64
2021/11/25 11:04:45;;;;;;;21.98;2.55;;;;;;;;;;5013982;28;20026;-65
2021/11/25 11:07:29;;;;;;;28.77;4.30;;;;;;;;;;5001099;28;20037;-64
2021/11/25 11:09:55;;;;;;;30.73;3.80;;;;;;;;;;5018084;28;20025;-65
2021/11/25 11:12:32;;;;;;;34.80;4.78;;;;;;;;;;5017424;28;20053;-66
2021/11/25 11:15:14;;;;;;;15.70;2.88;;;;;;;;;;5016648;28;20026;-65
2021/11/25 11:18:00;;;;;;;23.77;3.70;;;;;;;;;;5004152;28;20443;-65
2021/11/25 11:20:27;;;;;;;33.35;3.00;;;;;;;;;;5024328;28;20119;-64
2021/11/25 11:23:02;;;;;;;20.55;2.78;;;;;;;;;;5022128;28;20144;-64
2021/11/25 11:25:33;;;;;;;17.42;2.90;;;;;;;;;;5018164;28;20033;-64
2021/11/25 11:27:59;;;;;;;31.65;2.88;;;;;;;;;;5002611;28;20385;-65
2021/11/25 11:30:25;;;;;;;20.42;3.13;;;;;;;;;;5012429;28;20488;-65
2021/11/25 11:32:51;;;;;;;27.23;3.08;;;;;;;;;;5013015;28;20037;-66
2021/11/25 11:35:22;;;;;;;21.75;2.60;;;;;;;;;;5019504;28;20113;-66
2021/11/25 11:37:53;;;;;;;23.90;3.03;;;;;;;;;;4998046;28;20565;-65
2021/11/25 11:40:22;;;;;;;13.70;1.83;;;;;;;;;;5018562;28;20332;-65
2021/11/25 11:42:50;;;;;;;18.10;2.75;;;;;;;;;;5012994;28;20083;-63
2021/11/25 11:45:15;;;;;;;35.78;3.17;;;;;;;;;;5012915;28;20021;-65
2021/11/25 11:47:42;;;;;;;30.10;3.17;;;;;;;;;;4997659;28;20036;-65
2021/11/25 11:50:10;;;;;;;37.60;3.65;;;;;;;;;;5018621;28;20061;-65
2021/11/25 11:52:59;;;;;;;22.70;2.38;;;;;;;;;;5021960;28;20034;-64
2021/11/25 11:55:35;;;;;;;27.50;3.08;;;;;;;;;;5019052;28;20042;-65
2021/11/25 11:58:24;;;;;;;31.13;2.92;;;;;;;;;;5003281;28;20540;-65
2021/11/25 12:00:55;;;;;;;23.50;2.70;;;;;;;;;;5015492;28;20076;-64
2021/11/25 12:03:43;;;;;;;25.05;2.38;;;;;;;;;;5014539;28;20029;-65
2021/11/25 12:06:09;;;;;;;21.52;2.15;;;;;;;;;;5009977;28;20041;-64
2021/11/25 12:08:35;;;;;;;22.98;2.72;;;;;;;;;;5014167;28;20029;-66
2021/11/25 12:11:05;;;;;;;26.67;2.67;;;;;;;;;;5015858;28;20437;-66
2021/11/25 12:13:54;;;;;;;28.70;3.50;;;;;;;;;;5018909;28;20396;-67
2021/11/25 12:16:20;;;;;;;22.25;2.80;;;;;;;;;;5014280;28;20018;-66
2021/11/25 12:18:54;;;;;;;9.25;1.33;;;;;;;;;;5018171;28;20048;-65
2021/11/25 12:21:35;;;;;;;38.42;3.75;;;;;;;;;;5020220;28;20030;-64
2021/11/25 12:24:12;;;;;;;30.70;2.70;;;;;;;;;;5023667;28;20026;-64
2021/11/25 12:26:56;;;;;;;23.30;2.47;;;;;;;;;;5012383;28;20108;-64
2021/11/25 12:29:44;;;;;;;28.02;2.90;;;;;;;;;;5012381;28;20722;-65
2021/11/25 12:35:25;;;;;;;16.30;3.53;;;;;;;;;;5018630;28;20061;-66
2021/11/25 12:38:00;;;;;;;40.03;3.80;;;;;;;;;;5002532;28;20025;-66
2021/11/25 12:40:26;;;;;;;27.75;3.22;;;;;;;;;;5019002;28;20041;-65
2021/11/25 12:42:54;;;;;;;27.40;4.03;;;;;;;;;;5016646;28;20026;-65
2021/11/25 12:45:27;;;;;;;22.85;3.03;;;;;;;;;;5016362;28;20037;-66
2021/11/25 12:48:04;;;;;;;30.70;4.03;;;;;;;;;;5006083;28;20057;-66
2021/11/25 12:50:33;;;;;;;27.73;3.40;;;;;;;;;;5016669;28;20100;-64
2021/11/25 12:53:17;;;;;;;39.33;4.65;;;;;;;;;;5017481;28;20084;-66
2021/11/25 12:55:45;;;;;;;19.58;2.80;;;;;;;;;;5016404;28;20041;-66
2021/11/25 12:58:11;;;;;;;21.25;2.40;;;;;;;;;;5010127;28;20400;-66
2021/11/25 13:00:42;;;;;;;20.58;2.55;;;;;;;;;;5025819;28;20025;-65
2021/11/25 13:03:14;;;;;;;23.13;3.13;;;;;;;;;;5020444;28;20040;-66
2021/11/25 13:05:42;;;;;;;32.28;3.97;;;;;;;;;;5023814;28;20029;-66
2021/11/25 13:08:12;;;;;;;31.30;3.85;;;;;;;;;;5010167;28;20045;-67
2021/11/25 13:10:40;;;;;;;42.78;3.65;;;;;;;;;;5021056;28;20040;-66
2021/11/25 13:13:11;;;;;;;28.65;2.85;;;;;;;;;;5018634;28;20164;-67
2021/11/25 13:15:38;;;;;;;24.88;2.42;;;;;;;;;;5019320;28;20033;-66
2021/11/25 13:18:04;;;;;;;24.88;3.35;;;;;;;;;;5005841;28;20949;-66
2021/11/25 13:20:48;;;;;;;28.75;3.20;;;;;;;;;;5019030;28;20088;-66
2021/11/25 13:23:16;;;;;;;21.85;2.33;;;;;;;;;;5020231;28;20029;-66
2021/11/25 13:25:48;;;;;;;31.48;3.40;;;;;;;;;;5011888;28;20480;-67
2021/11/25 13:28:31;;;;;;;33.95;2.78;;;;;;;;;;5004741;28;20025;-66
2021/11/25 13:31:12;;;;;;;17.92;2.95;;;;;;;;;;5019902;28;20026;-66
2021/11/25 13:34:04;;;;;;;21.73;2.97;;;;;;;;;;5016035;28;20045;-66
2021/11/25 13:36:37;;;;;;;23.30;2.75;;;;;;;;;;5009668;28;20091;-65
2021/11/25 13:39:04;;;;;;;21.25;2.63;;;;;;;;;;5015801;28;20025;-66
2021/11/25 13:41:29;;;;;;;18.60;2.63;;;;;;;;;;5020573;28;20083;-67
2021/11/25 13:44:00;;;;;;;20.17;2.63;;;;;;;;;;5023624;28;20013;-67
2021/11/25 13:46:41;;;;;;;23.17;2.15;;;;;;;;;;5012142;28;20025;-67
2021/11/25 13:49:09;;;;;;;28.80;3.37;;;;;;;;;;5010518;28;20042;-67
2021/11/25 13:51:40;;;;;;;24.40;3.00;;;;;;;;;;5022758;28;20072;-66
2021/11/25 13:54:11;;;;;;;24.77;2.45;;;;;;;;;;5019093;28;20083;-67
2021/11/25 13:56:38;;;;;;;22.20;3.10;;;;;;;;;;5013077;28;20603;-66
2021/11/25 13:59:05;;;;;;;21.48;3.22;;;;;;;;;;5015303;28;20041;-67
2021/11/25 14:01:33;;;;;;;23.40;2.72;;;;;;;;;;5023831;28;20148;-67
2021/11/25 14:04:00;;;;;;;42.72;3.90;;;;;;;;;;5024058;28;20079;-67
2021/11/25 14:06:29;;;;;;;36.20;4.55;;;;;;;;;;5010604;28;20057;-67
2021/11/25 14:09:14;;;;;;;55.80;3.95;;;;;;;;;;5018221;28;20025;-64
2021/11/25 14:11:58;;;;;;;27.60;3.08;;;;;;;;;;5013728;28;20410;-65
2021/11/25 14:14:38;;;;;;;10.70;2.30;;;;;;;;;;5019361;28;20025;-65
2021/11/25 14:17:16;;;;;;;19.65;2.20;;;;;;;;;;5004986;28;20159;-66
2021/11/25 14:19:43;;;;;;;15.82;2.05;;;;;;;;;;5015972;28;20089;-67
2021/11/25 14:22:16;;;;;;;22.63;2.83;;;;;;;;;;5023737;28;20096;-65
2021/11/25 14:24:42;;;;;;;26.70;3.03;;;;;;;;;;5019171;28;20120;-67
2021/11/25 14:30:07;;;;;;;24.92;3.60;;;;;;;;;;5015303;28;20022;-67
2021/11/25 14:32:49;;;;;;;27.88;2.83;;;;;;;;;;5002350;28;20111;-66
2021/11/25 14:35:32;;;;;;;19.55;2.95;;;;;;;;;;5021711;28;20026;-66
2021/11/25 14:38:03;;;;;;;27.95;2.83;;;;;;;;;;5024250;28;20138;-67
2021/11/25 14:40:33;;;;;;;27.67;4.20;;;;;;;;;;5015495;28;20030;-67
2021/11/25 14:43:09;;;;;;;19.75;2.35;;;;;;;;;;5017821;28;20033;-68
2021/11/25 14:45:37;;;;;;;25.05;2.17;;;;;;;;;;5017036;28;20496;-68
2021/11/25 14:48:06;;;;;;;23.35;3.08;;;;;;;;;;5024687;28;20034;-67
2021/11/25 14:50:40;;;;;;;19.85;3.10;;;;;;;;;;5012701;28;20045;-67
2021/11/25 14:53:13;;;;;;;18.30;3.30;;;;;;;;;;5021780;28;20030;-66